sensor_id;sensor_type;location;lat;lon;timestamp;P1;durP1;ratioP1;P2;durP2;ratioP2
25946;SDS011;13745;51.470;9.894;2022-10-04T00:02:22;6.38;;;1.75;;
25946;SDS011;13745;51.470;9.894;2022-10-04T00:05:13;3.83;;;1.63;;
25946;SDS011;13745;51.470;9.894;2022-10-04T00:08:03;9.05;;;1.88;;
25946;SDS011;13745;51.470;9.894;2022-10-04T00:11:03;7.70;;;2.05;;
25946;SDS011;13745;51.470;9.894;2022-10-04T00:13:54;11.70;;;2.30;;
25946;SDS011;13745;51.470;9.894;2022-10-04T00:16:42;5.93;;;1.88;;
25946;SDS011;13745;51.470;9.894;2022-10-04T00:19:39;9.50;;;3.35;;
25946;SDS011;13745;51.470;9.894;2022-10-04T00:22:30;7.03;;;2.67;;
25946;SDS011;13745;51.470;9.894;2022-10-04T00:25:17;9.18;;;2.30;;
25946;SDS011;13745;51.470;9.894;2022-10-04T00:31:18;7.72;;;2.47;;
25946;SDS011;13745;51.470;9.894;2022-10-04T00:37:31;7.57;;;2.53;;
25946;SDS011;13745;51.470;9.894;2022-10-04T00:40:42;6.50;;;2.70;;
25946;SDS011;13745;51.470;9.894;2022-10-04T00:43:35;8.32;;;2.95;;
25946;SDS011;13745;51.470;9.894;2022-10-04T00:46:26;8.13;;;3.30;;
25946;SDS011;13745;51.470;9.894;2022-10-04T00:49:14;13.00;;;3.58;;
25946;SDS011;13745;51.470;9.894;2022-10-04T00:52:04;6.60;;;1.95;;
25946;SDS011;13745;51.470;9.894;2022-10-04T00:54:59;8.32;;;2.25;;
25946;SDS011;13745;51.470;9.894;2022-10-04T00:57:50;7.70;;;2.60;;
25946;SDS011;13745;51.470;9.894;2022-10-04T01:00:41;8.23;;;2.83;;
25946;SDS011;13745;51.470;9.894;2022-10-04T01:03:31;12.65;;;2.78;;
25946;SDS011;13745;51.470;9.894;2022-10-04T01:06:20;6.82;;;2.53;;
25946;SDS011;13745;51.470;9.894;2022-10-04T01:09:07;9.02;;;2.22;;
25946;SDS011;13745;51.470;9.894;2022-10-04T01:11:56;7.10;;;2.40;;
25946;SDS011;13745;51.470;9.894;2022-10-04T01:14:49;9.27;;;2.60;;
25946;SDS011;13745;51.470;9.894;2022-10-04T01:17:40;7.38;;;1.98;;
25946;SDS011;13745;51.470;9.894;2022-10-04T01:20:53;10.32;;;2.55;;
25946;SDS011;13745;51.470;9.894;2022-10-04T01:23:43;4.75;;;2.08;;
25946;SDS011;13745;51.470;9.894;2022-10-04T01:26:35;10.15;;;2.92;;
25946;SDS011;13745;51.470;9.894;2022-10-04T01:29:24;3.70;;;1.77;;
25946;SDS011;13745;51.470;9.894;2022-10-04T01:32:11;8.23;;;2.10;;
25946;SDS011;13745;51.470;9.894;2022-10-04T01:34:56;6.95;;;2.33;;
25946;SDS011;13745;51.470;9.894;2022-10-04T01:37:42;6.03;;;1.95;;
25946;SDS011;13745;51.470;9.894;2022-10-04T01:40:31;8.38;;;2.25;;
25946;SDS011;13745;51.470;9.894;2022-10-04T01:43:20;14.43;;;2.47;;
25946;SDS011;13745;51.470;9.894;2022-10-04T01:46:12;5.60;;;2.00;;
25946;SDS011;13745;51.470;9.894;2022-10-04T01:49:02;7.60;;;2.25;;
25946;SDS011;13745;51.470;9.894;2022-10-04T01:51:53;9.10;;;2.50;;
25946;SDS011;13745;51.470;9.894;2022-10-04T01:54:42;4.45;;;2.00;;
25946;SDS011;13745;51.470;9.894;2022-10-04T01:57:32;6.28;;;2.25;;
25946;SDS011;13745;51.470;9.894;2022-10-04T02:00:21;10.55;;;2.15;;
25946;SDS011;13745;51.470;9.894;2022-10-04T02:03:09;7.75;;;2.60;;
25946;SDS011;13745;51.470;9.894;2022-10-04T02:06:02;7.63;;;2.03;;
25946;SDS011;13745;51.470;9.894;2022-10-04T02:08:51;6.65;;;2.47;;
25946;SDS011;13745;51.470;9.894;2022-10-04T02:11:40;7.88;;;2.40;;
25946;SDS011;13745;51.470;9.894;2022-10-04T02:14:30;8.77;;;2.60;;
25946;SDS011;13745;51.470;9.894;2022-10-04T02:17:17;7.30;;;2.35;;
25946;SDS011;13745;51.470;9.894;2022-10-04T02:20:08;8.75;;;2.38;;
25946;SDS011;13745;51.470;9.894;2022-10-04T02:22:57;6.47;;;2.38;;
25946;SDS011;13745;51.470;9.894;2022-10-04T02:25:46;6.95;;;2.75;;
25946;SDS011;13745;51.470;9.894;2022-10-04T02:28:34;8.90;;;3.17;;
25946;SDS011;13745;51.470;9.894;2022-10-04T02:31:22;6.78;;;2.75;;
25946;SDS011;13745;51.470;9.894;2022-10-04T02:34:27;3.10;;;2.15;;
25946;SDS011;13745;51.470;9.894;2022-10-04T02:37:13;5.90;;;2.10;;
25946;SDS011;13745;51.470;9.894;2022-10-04T02:40:02;7.60;;;2.92;;
25946;SDS011;13745;51.470;9.894;2022-10-04T02:42:53;6.57;;;3.20;;
25946;SDS011;13745;51.470;9.894;2022-10-04T02:45:45;7.75;;;2.67;;
25946;SDS011;13745;51.470;9.894;2022-10-04T02:48:38;5.57;;;2.47;;
25946;SDS011;13745;51.470;9.894;2022-10-04T02:51:30;10.10;;;3.05;;
25946;SDS011;13745;51.470;9.894;2022-10-04T02:54:21;6.32;;;2.83;;
25946;SDS011;13745;51.470;9.894;2022-10-04T02:57:14;9.02;;;2.88;;
25946;SDS011;13745;51.470;9.894;2022-10-04T03:00:08;6.03;;;2.75;;
25946;SDS011;13745;51.470;9.894;2022-10-04T03:03:08;4.22;;;2.50;;
25946;SDS011;13745;51.470;9.894;2022-10-04T03:06:01;5.30;;;2.42;;
25946;SDS011;13745;51.470;9.894;2022-10-04T03:08:50;5.68;;;2.15;;
25946;SDS011;13745;51.470;9.894;2022-10-04T03:11:38;9.63;;;2.85;;
25946;SDS011;13745;51.470;9.894;2022-10-04T03:14:25;5.03;;;2.28;;
25946;SDS011;13745;51.470;9.894;2022-10-04T03:17:13;7.03;;;2.67;;
25946;SDS011;13745;51.470;9.894;2022-10-04T03:20:02;6.10;;;2.30;;
25946;SDS011;13745;51.470;9.894;2022-10-04T03:22:51;3.78;;;2.45;;
25946;SDS011;13745;51.470;9.894;2022-10-04T03:25:42;3.75;;;2.15;;
25946;SDS011;13745;51.470;9.894;2022-10-04T03:28:33;3.92;;;2.15;;
25946;SDS011;13745;51.470;9.894;2022-10-04T03:31:21;4.82;;;1.90;;
25946;SDS011;13745;51.470;9.894;2022-10-04T03:34:12;7.72;;;2.35;;
25946;SDS011;13745;51.470;9.894;2022-10-04T03:37:00;6.25;;;2.30;;
25946;SDS011;13745;51.470;9.894;2022-10-04T03:39:49;6.38;;;3.10;;
25946;SDS011;13745;51.470;9.894;2022-10-04T03:42:36;7.30;;;2.60;;
25946;SDS011;13745;51.470;9.894;2022-10-04T03:45:23;10.10;;;3.50;;
25946;SDS011;13745;51.470;9.894;2022-10-04T03:48:13;8.38;;;2.90;;
25946;SDS011;13745;51.470;9.894;2022-10-04T03:51:03;5.05;;;2.35;;
25946;SDS011;13745;51.470;9.894;2022-10-04T03:53:51;5.90;;;2.75;;
25946;SDS011;13745;51.470;9.894;2022-10-04T03:56:41;3.78;;;2.58;;
25946;SDS011;13745;51.470;9.894;2022-10-04T03:59:27;4.75;;;2.70;;
25946;SDS011;13745;51.470;9.894;2022-10-04T04:02:15;5.70;;;2.78;;
25946;SDS011;13745;51.470;9.894;2022-10-04T04:05:09;8.48;;;2.97;;
25946;SDS011;13745;51.470;9.894;2022-10-04T04:08:02;7.90;;;3.13;;
25946;SDS011;13745;51.470;9.894;2022-10-04T04:10:52;10.40;;;2.65;;
25946;SDS011;13745;51.470;9.894;2022-10-04T04:13:42;10.05;;;2.45;;
25946;SDS011;13745;51.470;9.894;2022-10-04T04:16:35;12.77;;;3.53;;
25946;SDS011;13745;51.470;9.894;2022-10-04T04:19:22;4.55;;;2.95;;
25946;SDS011;13745;51.470;9.894;2022-10-04T04:22:10;6.85;;;3.28;;
25946;SDS011;13745;51.470;9.894;2022-10-04T04:25:01;7.20;;;3.22;;
25946;SDS011;13745;51.470;9.894;2022-10-04T04:27:51;3.60;;;2.83;;
25946;SDS011;13745;51.470;9.894;2022-10-04T04:30:46;6.28;;;3.55;;
25946;SDS011;13745;51.470;9.894;2022-10-04T04:33:36;8.05;;;3.92;;
25946;SDS011;13745;51.470;9.894;2022-10-04T04:36:28;7.35;;;3.30;;
25946;SDS011;13745;51.470;9.894;2022-10-04T04:39:16;4.72;;;3.00;;
25946;SDS011;13745;51.470;9.894;2022-10-04T04:42:21;4.00;;;3.15;;
25946;SDS011;13745;51.470;9.894;2022-10-04T04:45:15;6.28;;;3.25;;
25946;SDS011;13745;51.470;9.894;2022-10-04T04:48:05;11.70;;;3.28;;
25946;SDS011;13745;51.470;9.894;2022-10-04T04:50:53;7.70;;;3.38;;
25946;SDS011;13745;51.470;9.894;2022-10-04T04:53:41;8.52;;;3.13;;
25946;SDS011;13745;51.470;9.894;2022-10-04T04:56:28;6.15;;;3.42;;
25946;SDS011;13745;51.470;9.894;2022-10-04T04:59:15;6.15;;;3.22;;
25946;SDS011;13745;51.470;9.894;2022-10-04T05:02:01;5.45;;;2.88;;
25946;SDS011;13745;51.470;9.894;2022-10-04T05:04:49;8.02;;;3.25;;
25946;SDS011;13745;51.470;9.894;2022-10-04T05:07:35;3.53;;;2.78;;
25946;SDS011;13745;51.470;9.894;2022-10-04T05:10:25;6.60;;;3.38;;
25946;SDS011;13745;51.470;9.894;2022-10-04T05:13:14;8.00;;;3.60;;
25946;SDS011;13745;51.470;9.894;2022-10-04T05:16:03;5.72;;;3.53;;
25946;SDS011;13745;51.470;9.894;2022-10-04T05:18:52;8.20;;;3.38;;
25946;SDS011;13745;51.470;9.894;2022-10-04T05:21:43;8.93;;;4.57;;
25946;SDS011;13745;51.470;9.894;2022-10-04T05:24:30;9.45;;;3.17;;
25946;SDS011;13745;51.470;9.894;2022-10-04T05:27:21;5.55;;;3.30;;
25946;SDS011;13745;51.470;9.894;2022-10-04T05:30:13;6.70;;;3.15;;
25946;SDS011;13745;51.470;9.894;2022-10-04T05:33:18;6.65;;;3.38;;
25946;SDS011;13745;51.470;9.894;2022-10-04T05:36:23;9.13;;;2.92;;
25946;SDS011;13745;51.470;9.894;2022-10-04T05:39:30;5.72;;;2.90;;
25946;SDS011;13745;51.470;9.894;2022-10-04T05:42:23;6.10;;;3.67;;
25946;SDS011;13745;51.470;9.894;2022-10-04T05:45:20;5.13;;;3.67;;
25946;SDS011;13745;51.470;9.894;2022-10-04T05:48:08;5.55;;;3.20;;
25946;SDS011;13745;51.470;9.894;2022-10-04T05:50:57;6.70;;;4.38;;
25946;SDS011;13745;51.470;9.894;2022-10-04T05:53:44;6.15;;;3.30;;
25946;SDS011;13745;51.470;9.894;2022-10-04T06:00:07;5.53;;;2.95;;
25946;SDS011;13745;51.470;9.894;2022-10-04T06:03:13;7.85;;;4.35;;
25946;SDS011;13745;51.470;9.894;2022-10-04T06:06:10;10.40;;;3.58;;
25946;SDS011;13745;51.470;9.894;2022-10-04T06:09:04;5.28;;;3.20;;
25946;SDS011;13745;51.470;9.894;2022-10-04T06:11:58;4.95;;;3.72;;
25946;SDS011;13745;51.470;9.894;2022-10-04T06:18:21;5.55;;;3.40;;
25946;SDS011;13745;51.470;9.894;2022-10-04T06:21:19;4.20;;;3.33;;
25946;SDS011;13745;51.470;9.894;2022-10-04T06:24:09;9.60;;;3.53;;
25946;SDS011;13745;51.470;9.894;2022-10-04T06:26:59;5.82;;;3.33;;
25946;SDS011;13745;51.470;9.894;2022-10-04T06:29:55;8.98;;;4.03;;
25946;SDS011;13745;51.470;9.894;2022-10-04T06:32:56;6.07;;;3.72;;
25946;SDS011;13745;51.470;9.894;2022-10-04T06:36:02;5.15;;;3.03;;
25946;SDS011;13745;51.470;9.894;2022-10-04T06:42:39;6.55;;;3.00;;
25946;SDS011;13745;51.470;9.894;2022-10-04T06:45:42;3.83;;;2.93;;
25946;SDS011;13745;51.470;9.894;2022-10-04T06:51:55;9.15;;;3.72;;
25946;SDS011;13745;51.470;9.894;2022-10-04T06:54:54;3.30;;;2.95;;
25946;SDS011;13745;51.470;9.894;2022-10-04T06:58:02;4.68;;;3.00;;
25946;SDS011;13745;51.470;9.894;2022-10-04T07:01:03;7.07;;;3.72;;
25946;SDS011;13745;51.470;9.894;2022-10-04T07:04:02;6.13;;;3.30;;
25946;SDS011;13745;51.470;9.894;2022-10-04T07:07:06;5.90;;;3.28;;
25946;SDS011;13745;51.470;9.894;2022-10-04T07:10:24;7.20;;;4.53;;
25946;SDS011;13745;51.470;9.894;2022-10-04T07:13:22;8.02;;;3.55;;
25946;SDS011;13745;51.470;9.894;2022-10-04T07:16:22;9.02;;;3.70;;
25946;SDS011;13745;51.470;9.894;2022-10-04T07:22:25;9.68;;;4.47;;
25946;SDS011;13745;51.470;9.894;2022-10-04T07:25:15;7.18;;;3.58;;
25946;SDS011;13745;51.470;9.894;2022-10-04T07:28:09;6.80;;;2.85;;
25946;SDS011;13745;51.470;9.894;2022-10-04T07:31:20;8.77;;;3.42;;
25946;SDS011;13745;51.470;9.894;2022-10-04T07:34:13;6.40;;;2.90;;
25946;SDS011;13745;51.470;9.894;2022-10-04T07:37:07;4.07;;;1.90;;
25946;SDS011;13745;51.470;9.894;2022-10-04T07:39:56;5.83;;;3.33;;
25946;SDS011;13745;51.470;9.894;2022-10-04T07:42:47;4.82;;;2.70;;
25946;SDS011;13745;51.470;9.894;2022-10-04T07:45:38;3.67;;;2.75;;
25946;SDS011;13745;51.470;9.894;2022-10-04T07:48:25;4.25;;;2.80;;
25946;SDS011;13745;51.470;9.894;2022-10-04T07:51:13;5.13;;;2.92;;
25946;SDS011;13745;51.470;9.894;2022-10-04T07:54:09;5.27;;;2.90;;
25946;SDS011;13745;51.470;9.894;2022-10-04T07:57:02;5.82;;;2.67;;
25946;SDS011;13745;51.470;9.894;2022-10-04T07:59:56;5.07;;;2.50;;
25946;SDS011;13745;51.470;9.894;2022-10-04T08:03:09;9.90;;;2.85;;
25946;SDS011;13745;51.470;9.894;2022-10-04T08:06:07;3.38;;;2.47;;
25946;SDS011;13745;51.470;9.894;2022-10-04T08:09:10;4.63;;;2.30;;
25946;SDS011;13745;51.470;9.894;2022-10-04T08:12:12;3.75;;;2.20;;
25946;SDS011;13745;51.470;9.894;2022-10-04T08:15:17;3.70;;;2.47;;
25946;SDS011;13745;51.470;9.894;2022-10-04T08:18:20;5.20;;;3.05;;
25946;SDS011;13745;51.470;9.894;2022-10-04T08:21:18;5.10;;;2.90;;
25946;SDS011;13745;51.470;9.894;2022-10-04T08:24:15;6.22;;;2.90;;
25946;SDS011;13745;51.470;9.894;2022-10-04T08:27:15;5.30;;;2.95;;
25946;SDS011;13745;51.470;9.894;2022-10-04T08:30:13;5.75;;;2.78;;
25946;SDS011;13745;51.470;9.894;2022-10-04T08:33:02;6.43;;;3.42;;
25946;SDS011;13745;51.470;9.894;2022-10-04T08:35:59;4.95;;;2.28;;
25946;SDS011;13745;51.470;9.894;2022-10-04T08:38:56;3.28;;;2.20;;
25946;SDS011;13745;51.470;9.894;2022-10-04T08:41:56;5.40;;;2.50;;
25946;SDS011;13745;51.470;9.894;2022-10-04T08:45:12;4.10;;;2.08;;
25946;SDS011;13745;51.470;9.894;2022-10-04T08:51:42;2.95;;;2.03;;
25946;SDS011;13745;51.470;9.894;2022-10-04T08:58:32;4.30;;;2.45;;
25946;SDS011;13745;51.470;9.894;2022-10-04T09:01:43;3.92;;;1.83;;
25946;SDS011;13745;51.470;9.894;2022-10-04T09:11:09;6.60;;;2.13;;
25946;SDS011;13745;51.470;9.894;2022-10-04T09:14:14;5.88;;;3.00;;
25946;SDS011;13745;51.470;9.894;2022-10-04T09:17:19;4.25;;;2.70;;
25946;SDS011;13745;51.470;9.894;2022-10-04T09:20:10;4.45;;;2.33;;
25946;SDS011;13745;51.470;9.894;2022-10-04T09:23:11;3.50;;;2.10;;
25946;SDS011;13745;51.470;9.894;2022-10-04T09:26:19;5.25;;;2.35;;
25946;SDS011;13745;51.470;9.894;2022-10-04T09:29:19;4.10;;;2.20;;
25946;SDS011;13745;51.470;9.894;2022-10-04T09:35:42;3.97;;;1.88;;
25946;SDS011;13745;51.470;9.894;2022-10-04T09:42:19;3.50;;;1.83;;
25946;SDS011;13745;51.470;9.894;2022-10-04T09:45:21;5.40;;;1.77;;
25946;SDS011;13745;51.470;9.894;2022-10-04T09:48:20;3.78;;;2.08;;
25946;SDS011;13745;51.470;9.894;2022-10-04T09:58:13;4.30;;;2.28;;
25946;SDS011;13745;51.470;9.894;2022-10-04T10:01:15;5.45;;;3.55;;
25946;SDS011;13745;51.470;9.894;2022-10-04T10:04:27;3.08;;;1.75;;
25946;SDS011;13745;51.470;9.894;2022-10-04T10:07:29;9.90;;;4.07;;
25946;SDS011;13745;51.470;9.894;2022-10-04T10:10:25;5.65;;;2.50;;
25946;SDS011;13745;51.470;9.894;2022-10-04T10:13:49;5.97;;;1.93;;
25946;SDS011;13745;51.470;9.894;2022-10-04T10:16:54;3.08;;;2.25;;
25946;SDS011;13745;51.470;9.894;2022-10-04T10:23:20;4.93;;;1.90;;
25946;SDS011;13745;51.470;9.894;2022-10-04T10:29:42;3.10;;;2.00;;
25946;SDS011;13745;51.470;9.894;2022-10-04T10:36:12;3.50;;;1.60;;
25946;SDS011;13745;51.470;9.894;2022-10-04T10:39:16;2.38;;;1.50;;
25946;SDS011;13745;51.470;9.894;2022-10-04T10:45:51;2.72;;;1.60;;
25946;SDS011;13745;51.470;9.894;2022-10-04T10:49:01;3.55;;;1.85;;
25946;SDS011;13745;51.470;9.894;2022-10-04T10:52:10;1.60;;;1.23;;
25946;SDS011;13745;51.470;9.894;2022-10-04T10:55:16;3.63;;;1.40;;
25946;SDS011;13745;51.470;9.894;2022-10-04T10:58:41;3.08;;;1.67;;
25946;SDS011;13745;51.470;9.894;2022-10-04T11:01:52;3.50;;;1.75;;
25946;SDS011;13745;51.470;9.894;2022-10-04T11:05:18;5.15;;;1.73;;
25946;SDS011;13745;51.470;9.894;2022-10-04T11:08:31;5.38;;;1.80;;
25946;SDS011;13745;51.470;9.894;2022-10-04T11:11:39;2.60;;;1.23;;
25946;SDS011;13745;51.470;9.894;2022-10-04T11:17:56;2.88;;;1.73;;
25946;SDS011;13745;51.470;9.894;2022-10-04T11:20:58;3.97;;;1.75;;
25946;SDS011;13745;51.470;9.894;2022-10-04T11:24:22;3.47;;;2.03;;
25946;SDS011;13745;51.470;9.894;2022-10-04T11:27:34;6.30;;;1.88;;
25946;SDS011;13745;51.470;9.894;2022-10-04T11:33:39;3.10;;;1.92;;
25946;SDS011;13745;51.470;9.894;2022-10-04T11:36:44;3.65;;;1.60;;
25946;SDS011;13745;51.470;9.894;2022-10-04T11:39:56;2.78;;;1.42;;
25946;SDS011;13745;51.470;9.894;2022-10-04T11:42:58;2.58;;;1.38;;
25946;SDS011;13745;51.470;9.894;2022-10-04T11:46:07;3.92;;;1.58;;
25946;SDS011;13745;51.470;9.894;2022-10-04T11:49:00;4.43;;;1.80;;
25946;SDS011;13745;51.470;9.894;2022-10-04T11:52:12;2.53;;;1.45;;
25946;SDS011;13745;51.470;9.894;2022-10-04T11:55:44;4.50;;;1.88;;
25946;SDS011;13745;51.470;9.894;2022-10-04T12:02:05;2.22;;;1.50;;
25946;SDS011;13745;51.470;9.894;2022-10-04T12:08:26;2.97;;;1.75;;
25946;SDS011;13745;51.470;9.894;2022-10-04T12:11:24;4.60;;;1.60;;
25946;SDS011;13745;51.470;9.894;2022-10-04T12:15:03;4.28;;;1.30;;
25946;SDS011;13745;51.470;9.894;2022-10-04T12:21:34;2.53;;;1.25;;
25946;SDS011;13745;51.470;9.894;2022-10-04T12:24:33;4.33;;;1.30;;
25946;SDS011;13745;51.470;9.894;2022-10-04T12:31:06;2.53;;;1.20;;
25946;SDS011;13745;51.470;9.894;2022-10-04T12:33:59;2.33;;;1.10;;
25946;SDS011;13745;51.470;9.894;2022-10-04T12:37:06;2.55;;;1.00;;
25946;SDS011;13745;51.470;9.894;2022-10-04T12:43:09;2.80;;;1.10;;
25946;SDS011;13745;51.470;9.894;2022-10-04T12:46:04;1.92;;;1.15;;
25946;SDS011;13745;51.470;9.894;2022-10-04T12:49:05;2.85;;;1.40;;
25946;SDS011;13745;51.470;9.894;2022-10-04T12:52:01;1.65;;;0.90;;
25946;SDS011;13745;51.470;9.894;2022-10-04T12:54:53;4.03;;;1.30;;
25946;SDS011;13745;51.470;9.894;2022-10-04T12:57:46;2.08;;;1.10;;
25946;SDS011;13745;51.470;9.894;2022-10-04T13:00:37;6.03;;;1.10;;
25946;SDS011;13745;51.470;9.894;2022-10-04T13:03:32;21.63;;;2.55;;
25946;SDS011;13745;51.470;9.894;2022-10-04T13:06:25;3.30;;;1.63;;
25946;SDS011;13745;51.470;9.894;2022-10-04T13:09:19;2.90;;;1.30;;
25946;SDS011;13745;51.470;9.894;2022-10-04T13:12:21;3.25;;;1.17;;
25946;SDS011;13745;51.470;9.894;2022-10-04T13:15:19;5.55;;;1.10;;
25946;SDS011;13745;51.470;9.894;2022-10-04T13:18:14;2.13;;;0.82;;
25946;SDS011;13745;51.470;9.894;2022-10-04T13:21:13;3.88;;;1.65;;
25946;SDS011;13745;51.470;9.894;2022-10-04T13:24:06;3.92;;;1.20;;
25946;SDS011;13745;51.470;9.894;2022-10-04T13:27:05;12.80;;;1.70;;
25946;SDS011;13745;51.470;9.894;2022-10-04T13:30:00;3.53;;;1.10;;
25946;SDS011;13745;51.470;9.894;2022-10-04T13:32:52;7.03;;;1.38;;
25946;SDS011;13745;51.470;9.894;2022-10-04T13:35:48;3.80;;;1.23;;
25946;SDS011;13745;51.470;9.894;2022-10-04T13:38:47;1.98;;;1.08;;
25946;SDS011;13745;51.470;9.894;2022-10-04T13:41:59;5.10;;;1.25;;
25946;SDS011;13745;51.470;9.894;2022-10-04T13:44:56;5.55;;;1.00;;
25946;SDS011;13745;51.470;9.894;2022-10-04T13:47:58;5.57;;;1.40;;
25946;SDS011;13745;51.470;9.894;2022-10-04T13:51:02;3.08;;;1.27;;
25946;SDS011;13745;51.470;9.894;2022-10-04T13:54:04;3.88;;;1.40;;
25946;SDS011;13745;51.470;9.894;2022-10-04T13:57:20;3.50;;;1.33;;
25946;SDS011;13745;51.470;9.894;2022-10-04T14:00:11;3.42;;;1.63;;
25946;SDS011;13745;51.470;9.894;2022-10-04T14:03:17;3.50;;;1.35;;
25946;SDS011;13745;51.470;9.894;2022-10-04T14:06:29;4.28;;;1.60;;
25946;SDS011;13745;51.470;9.894;2022-10-04T14:09:44;3.00;;;1.40;;
25946;SDS011;13745;51.470;9.894;2022-10-04T14:12:59;2.85;;;1.20;;
25946;SDS011;13745;51.470;9.894;2022-10-04T14:16:16;2.83;;;1.52;;
25946;SDS011;13745;51.470;9.894;2022-10-04T14:19:23;3.78;;;1.30;;
25946;SDS011;13745;51.470;9.894;2022-10-04T14:25:59;2.90;;;1.58;;
25946;SDS011;13745;51.470;9.894;2022-10-04T14:29:15;4.10;;;1.60;;
25946;SDS011;13745;51.470;9.894;2022-10-04T14:32:31;2.92;;;1.35;;
25946;SDS011;13745;51.470;9.894;2022-10-04T14:35:41;4.50;;;1.52;;
25946;SDS011;13745;51.470;9.894;2022-10-04T14:38:36;5.03;;;1.58;;
25946;SDS011;13745;51.470;9.894;2022-10-04T14:41:44;3.40;;;1.50;;
25946;SDS011;13745;51.470;9.894;2022-10-04T14:48:09;2.55;;;1.60;;
25946;SDS011;13745;51.470;9.894;2022-10-04T14:51:13;8.95;;;2.00;;
25946;SDS011;13745;51.470;9.894;2022-10-04T14:54:11;4.03;;;1.58;;
25946;SDS011;13745;51.470;9.894;2022-10-04T14:57:05;6.00;;;2.35;;
25946;SDS011;13745;51.470;9.894;2022-10-04T15:00:04;3.72;;;1.60;;
25946;SDS011;13745;51.470;9.894;2022-10-04T15:03:16;4.03;;;2.03;;
25946;SDS011;13745;51.470;9.894;2022-10-04T15:06:17;5.65;;;1.67;;
25946;SDS011;13745;51.470;9.894;2022-10-04T15:09:24;4.40;;;1.90;;
25946;SDS011;13745;51.470;9.894;2022-10-04T15:12:37;3.22;;;1.75;;
25946;SDS011;13745;51.470;9.894;2022-10-04T15:15:30;6.30;;;1.70;;
25946;SDS011;13745;51.470;9.894;2022-10-04T15:18:24;5.30;;;1.52;;
25946;SDS011;13745;51.470;9.894;2022-10-04T15:21:31;2.85;;;1.63;;
25946;SDS011;13745;51.470;9.894;2022-10-04T15:24:26;2.13;;;1.33;;
25946;SDS011;13745;51.470;9.894;2022-10-04T15:30:37;6.00;;;1.67;;
25946;SDS011;13745;51.470;9.894;2022-10-04T15:33:38;5.53;;;1.75;;
25946;SDS011;13745;51.470;9.894;2022-10-04T15:36:40;3.57;;;1.80;;
25946;SDS011;13745;51.470;9.894;2022-10-04T15:40:11;5.78;;;1.92;;
25946;SDS011;13745;51.470;9.894;2022-10-04T15:46:36;9.80;;;1.65;;
25946;SDS011;13745;51.470;9.894;2022-10-04T15:49:28;3.58;;;1.67;;
25946;SDS011;13745;51.470;9.894;2022-10-04T15:52:41;3.28;;;1.52;;
25946;SDS011;13745;51.470;9.894;2022-10-04T15:59:10;3.78;;;1.58;;
25946;SDS011;13745;51.470;9.894;2022-10-04T16:02:22;5.10;;;1.42;;
25946;SDS011;13745;51.470;9.894;2022-10-04T16:05:23;6.03;;;1.50;;
25946;SDS011;13745;51.470;9.894;2022-10-04T16:08:34;7.43;;;2.05;;
25946;SDS011;13745;51.470;9.894;2022-10-04T16:11:49;3.53;;;1.83;;
25946;SDS011;13745;51.470;9.894;2022-10-04T16:15:10;5.53;;;1.73;;
25946;SDS011;13745;51.470;9.894;2022-10-04T16:21:24;2.78;;;1.60;;
25946;SDS011;13745;51.470;9.894;2022-10-04T16:24:37;4.28;;;1.60;;
25946;SDS011;13745;51.470;9.894;2022-10-04T16:27:37;4.63;;;2.00;;
25946;SDS011;13745;51.470;9.894;2022-10-04T16:30:30;6.10;;;1.45;;
25946;SDS011;13745;51.470;9.894;2022-10-04T16:33:23;7.38;;;1.88;;
25946;SDS011;13745;51.470;9.894;2022-10-04T16:36:17;6.78;;;1.75;;
25946;SDS011;13745;51.470;9.894;2022-10-04T16:39:08;8.48;;;1.83;;
25946;SDS011;13745;51.470;9.894;2022-10-04T16:42:14;5.43;;;1.70;;
25946;SDS011;13745;51.470;9.894;2022-10-04T16:45:29;3.97;;;1.58;;
25946;SDS011;13745;51.470;9.894;2022-10-04T16:48:24;4.28;;;1.40;;
25946;SDS011;13745;51.470;9.894;2022-10-04T17:01:36;4.88;;;1.63;;
25946;SDS011;13745;51.470;9.894;2022-10-04T17:07:50;5.75;;;1.35;;
25946;SDS011;13745;51.470;9.894;2022-10-04T17:11:03;2.35;;;1.23;;
25946;SDS011;13745;51.470;9.894;2022-10-04T17:13:58;4.95;;;1.40;;
25946;SDS011;13745;51.470;9.894;2022-10-04T17:16:47;2.40;;;1.45;;
25946;SDS011;13745;51.470;9.894;2022-10-04T17:19:40;2.90;;;1.70;;
25946;SDS011;13745;51.470;9.894;2022-10-04T17:22:34;3.15;;;1.73;;
25946;SDS011;13745;51.470;9.894;2022-10-04T17:25:34;3.65;;;2.00;;
25946;SDS011;13745;51.470;9.894;2022-10-04T17:28:29;3.78;;;1.75;;
25946;SDS011;13745;51.470;9.894;2022-10-04T17:31:20;6.38;;;2.15;;
25946;SDS011;13745;51.470;9.894;2022-10-04T17:34:16;2.75;;;1.60;;
25946;SDS011;13745;51.470;9.894;2022-10-04T17:37:12;5.45;;;1.20;;
25946;SDS011;13745;51.470;9.894;2022-10-04T17:43:28;9.07;;;2.17;;
25946;SDS011;13745;51.470;9.894;2022-10-04T17:46:26;4.35;;;2.13;;
25946;SDS011;13745;51.470;9.894;2022-10-04T17:49:22;7.25;;;2.13;;
25946;SDS011;13745;51.470;9.894;2022-10-04T17:52:39;3.50;;;2.00;;
25946;SDS011;13745;51.470;9.894;2022-10-04T17:55:48;4.90;;;1.92;;
25946;SDS011;13745;51.470;9.894;2022-10-04T17:58:40;8.37;;;1.93;;
25946;SDS011;13745;51.470;9.894;2022-10-04T18:01:29;3.83;;;1.90;;
25946;SDS011;13745;51.470;9.894;2022-10-04T18:04:21;3.55;;;1.80;;
25946;SDS011;13745;51.470;9.894;2022-10-04T18:07:10;3.08;;;1.60;;
25946;SDS011;13745;51.470;9.894;2022-10-04T18:13:04;4.40;;;1.73;;
25946;SDS011;13745;51.470;9.894;2022-10-04T18:16:01;3.03;;;1.77;;
25946;SDS011;13745;51.470;9.894;2022-10-04T18:18:53;4.72;;;1.73;;
25946;SDS011;13745;51.470;9.894;2022-10-04T18:21:39;3.50;;;1.98;;
25946;SDS011;13745;51.470;9.894;2022-10-04T18:24:33;10.82;;;5.80;;
25946;SDS011;13745;51.470;9.894;2022-10-04T18:27:20;4.63;;;2.25;;
25946;SDS011;13745;51.470;9.894;2022-10-04T18:30:11;2.40;;;1.67;;
25946;SDS011;13745;51.470;9.894;2022-10-04T18:32:59;6.10;;;2.20;;
25946;SDS011;13745;51.470;9.894;2022-10-04T18:35:49;5.70;;;1.65;;
25946;SDS011;13745;51.470;9.894;2022-10-04T18:38:37;5.85;;;2.15;;
25946;SDS011;13745;51.470;9.894;2022-10-04T18:41:26;6.63;;;2.42;;
25946;SDS011;13745;51.470;9.894;2022-10-04T18:44:40;3.53;;;2.60;;
25946;SDS011;13745;51.470;9.894;2022-10-04T18:47:33;6.38;;;4.53;;
25946;SDS011;13745;51.470;9.894;2022-10-04T18:50:22;5.45;;;2.15;;
25946;SDS011;13745;51.470;9.894;2022-10-04T18:53:20;6.47;;;2.40;;
25946;SDS011;13745;51.470;9.894;2022-10-04T18:56:16;4.28;;;2.80;;
25946;SDS011;13745;51.470;9.894;2022-10-04T18:59:06;4.28;;;2.00;;
25946;SDS011;13745;51.470;9.894;2022-10-04T19:02:20;4.25;;;2.05;;
25946;SDS011;13745;51.470;9.894;2022-10-04T19:05:16;3.47;;;1.90;;
25946;SDS011;13745;51.470;9.894;2022-10-04T19:08:10;5.13;;;2.97;;
25946;SDS011;13745;51.470;9.894;2022-10-04T19:11:15;11.35;;;2.88;;
25946;SDS011;13745;51.470;9.894;2022-10-04T19:14:09;3.95;;;2.05;;
25946;SDS011;13745;51.470;9.894;2022-10-04T19:17:08;3.80;;;2.10;;
25946;SDS011;13745;51.470;9.894;2022-10-04T19:20:02;5.80;;;1.98;;
25946;SDS011;13745;51.470;9.894;2022-10-04T19:22:59;11.25;;;6.75;;
25946;SDS011;13745;51.470;9.894;2022-10-04T19:25:56;7.72;;;2.28;;
25946;SDS011;13745;51.470;9.894;2022-10-04T19:28:48;12.57;;;4.93;;
25946;SDS011;13745;51.470;9.894;2022-10-04T19:31:42;2.90;;;2.42;;
25946;SDS011;13745;51.470;9.894;2022-10-04T19:34:38;6.40;;;2.25;;
25946;SDS011;13745;51.470;9.894;2022-10-04T19:37:32;4.18;;;1.98;;
25946;SDS011;13745;51.470;9.894;2022-10-04T19:40:27;4.90;;;2.20;;
25946;SDS011;13745;51.470;9.894;2022-10-04T19:43:23;5.28;;;2.13;;
25946;SDS011;13745;51.470;9.894;2022-10-04T19:46:19;8.80;;;2.47;;
25946;SDS011;13745;51.470;9.894;2022-10-04T19:49:17;3.08;;;2.00;;
25946;SDS011;13745;51.470;9.894;2022-10-04T19:55:02;7.03;;;3.13;;
25946;SDS011;13745;51.470;9.894;2022-10-04T19:58:05;5.30;;;2.08;;
25946;SDS011;13745;51.470;9.894;2022-10-04T20:01:10;4.90;;;2.10;;